Flight Track Log - Related Links

Times and Time Zones

All times are in EDT time to prevent confusion due to time zone crossing. See the DAL3780 flight status page for this flight to view local times or setup timezone preferences in your user account.

Time Position Orientation Groundspeed Altitude Reporting Facility
EDT Latitude Longitude Course Direction KTS MPH feet Rate Location/Type
Tue 05:34:19 PM 36.1500 -86.6667 360° North 160 184 1,200  Level Nashville TRACON
Tue 05:35:07 PM 36.1833 -86.6667 360° North 196 226 2,300 1,724 Climbing Nashville TRACON
Tue 05:35:46 PM 36.2094 -86.7172 303° West 222 255 3,700 2,000 Climbing Memphis Center
Tue 05:36:46 PM 36.2447 -86.7825 304° West 235 270 5,600 2,450 Climbing Memphis Center
Tue 05:37:46 PM 36.2844 -86.8606 302° West 256 295 8,600 2,600 Climbing Memphis Center
Tue 05:38:46 PM 36.3306 -86.9489 303° West 274 315 10,800 1,950 Climbing Memphis Center
Tue 05:39:46 PM 36.3789 -87.0369 304° West 291 335 12,500 1,700 Climbing Memphis Center
Tue 05:40:46 PM 36.4331 -87.1200 309° West 308 354 14,200 1,500 Climbing Memphis Center
Tue 05:41:46 PM 36.5058 -87.1892 323° Northwest 313 360 15,500 1,500 Climbing Memphis Center
Tue 05:42:46 PM 36.5786 -87.2639 321° Northwest 334 384 17,200 1,450 Climbing Memphis Center
Tue 05:43:46 PM 36.6489 -87.3311 323° Northwest 329 379 18,400 1,100 Climbing Memphis Center
Tue 05:44:46 PM 36.7153 -87.3983 321° Northwest 338 389 19,400 1,000 Climbing Memphis Center
Tue 05:45:46 PM 36.7878 -87.4708 321° Northwest 338 389 20,400 1,000 Climbing Memphis Center
Tue 05:46:46 PM 36.8625 -87.5461 321° Northwest 338 389 21,400 1,000 Climbing Memphis Center
Tue 05:47:46 PM 36.9392 -87.6211 322° Northwest 344 396 22,400 900 Climbing Memphis Center
Tue 05:48:46 PM 37.0158 -87.6992 321° Northwest 344 396 23,200 650 Climbing Memphis Center
Tue 05:49:46 PM 37.0925 -87.7744 322° Northwest 349 402 23,700 550 Climbing Memphis Center
Tue 05:50:46 PM 37.1756 -87.8631 320° Northwest 359 413 24,300 550 Climbing Memphis Center
Tue 05:51:46 PM 37.2564 -87.9439 321° Northwest 364 419 24,800 550 Climbing Memphis Center
Tue 05:52:46 PM 37.3369 -88.0247 321° Northwest 364 419 25,400 550 Climbing Memphis Center
Tue 05:53:46 PM 37.4156 -88.1086 320° Northwest 364 419 25,900 550 Climbing Memphis Center
Tue 05:54:46 PM 37.4983 -88.1925 321° Northwest 364 419 26,500 575 Climbing Memphis Center
Tue 05:56:33 PM 37.6344 -88.3322 321° Northwest 375 432 27,500 533 Climbing Kansas City Center
Tue 05:57:35 PM 37.7158 -88.4156 321° Northwest 375 432 28,000 484 Climbing Kansas City Center
Tue 05:58:37 PM 37.7956 -88.4997 320° Northwest 372 428 28,500 435 Climbing Kansas City Center
Tue 05:59:39 PM 37.8769 -88.5836 321° Northwest 374 430 28,900 387 Climbing Kansas City Center
Tue 06:00:41 PM 37.9569 -88.6681 320° Northwest 373 429 29,300 435 Climbing Kansas City Center
Tue 06:01:43 PM 38.0411 -88.7553 321° Northwest 377 434 29,800 435 Climbing Kansas City Center
Tue 06:02:45 PM 38.1222 -88.8397 321° Northwest 378 435 30,200 435 Climbing Kansas City Center
Tue 06:03:47 PM 38.2186 -88.9414 320° Northwest 378 435 30,700 435 Climbing Kansas City Center
Tue 06:04:49 PM 38.2981 -89.0258 320° Northwest 375 432 31,100 387 Climbing Kansas City Center
Tue 06:05:51 PM 38.3828 -89.1164 320° Northwest 373 429 31,500 387 Climbing Kansas City Center
Tue 06:06:53 PM 38.4744 -89.1964 326° Northwest 372 428 31,900 242 Climbing Kansas City Center
Tue 06:07:55 PM 38.5661 -89.2619 331° Northwest 378 435 32,000 48 Climbing Kansas City Center
Tue 06:08:57 PM 38.6639 -89.3331 330° Northwest 378 435 32,000  Level Kansas City Center
Tue 06:09:59 PM 38.7550 -89.4008 330° Northwest 380 437 32,000  Level Kansas City Center
Tue 06:11:01 PM 38.8525 -89.4733 330° Northwest 378 435 32,000  Level Kansas City Center
Tue 06:12:03 PM 38.9442 -89.5408 330° Northwest 380 437 32,000  Level Kansas City Center
Tue 06:13:05 PM 39.0364 -89.6103 330° Northwest 384 442 32,000  Level Kansas City Center
Tue 06:14:07 PM 39.1375 -89.6853 330° Northwest 389 448 32,000  Level Kansas City Center
Tue 06:15:08 PM 39.2311 -89.7553 330° Northwest 387 445 32,000  Level Kansas City Center
Tue 06:16:10 PM 39.3250 -89.8261 330° Northwest 390 449 32,000  Level Kansas City Center
Tue 06:17:12 PM 39.4197 -89.8947 331° Northwest 391 450 32,000  Level Kansas City Center
Tue 06:18:14 PM 39.5150 -89.9683 329° Northwest 398 458 32,000  Level Kansas City Center
Tue 06:19:16 PM 39.6100 -90.0394 330° Northwest 397 457 32,000  Level Kansas City Center
Tue 06:20:18 PM 39.7239 -90.1278 329° Northwest 397 457 32,000  Level Kansas City Center
Tue 06:21:20 PM 39.8108 -90.1947 329° Northwest 396 456 32,000  Level Kansas City Center
Tue 06:22:22 PM 39.9053 -90.2675 329° Northwest 395 455 32,000  Level Kansas City Center
Tue 06:23:24 PM 39.9997 -90.3403 329° Northwest 393 452 32,000  Level Kansas City Center
Tue 06:24:26 PM 40.0944 -90.4125 330° Northwest 392 451 32,000  Level Kansas City Center
Tue 06:25:28 PM 40.2069 -90.4997 329° Northwest 389 448 32,000  Level Kansas City Center
Tue 06:26:30 PM 40.2994 -90.5719 329° Northwest 387 445 32,000  Level Kansas City Center
Tue 06:27:32 PM 40.3908 -90.6431 329° Northwest 383 441 32,000  Level Kansas City Center
Tue 06:28:07 PM 40.4481 -90.6889 329° Northwest 387 445 32,000  Level Chicago Center
Tue 06:29:09 PM 40.5425 -90.7614 330° Northwest 390 449 32,000  Level Chicago Center
Tue 06:30:11 PM 40.6356 -90.8333 330° Northwest 388 447 32,000  Level Chicago Center
Tue 06:31:13 PM 40.7281 -90.9072 329° Northwest 387 445 32,000  Level Chicago Center
Tue 06:32:15 PM 40.8217 -90.9808 329° Northwest 389 448 32,000  Level Chicago Center
Tue 06:33:17 PM 40.9147 -91.0547 329° Northwest 388 447 32,000  Level Chicago Center
Tue 06:34:19 PM 41.0269 -91.1431 329° Northwest 389 448 32,000  Level Chicago Center
Tue 06:35:22 PM 41.1194 -91.2172 329° Northwest 388 447 32,000  Level Chicago Center
Tue 06:36:24 PM 41.2125 -91.2914 329° Northwest 389 448 32,000  Level Chicago Center
Tue 06:37:26 PM 41.2983 -91.3603 329° Northwest 388 447 32,000  Level Chicago Center
Tue 06:38:28 PM 41.4072 -91.4494 328° Northwest 385 443 32,000  Level Chicago Center
Tue 06:39:30 PM 41.4983 -91.5222 329° Northwest 385 443 32,000  Level Chicago Center
Tue 06:40:32 PM 41.5883 -91.5967 328° Northwest 383 441 32,000  Level Chicago Center
Tue 06:41:34 PM 41.6794 -91.6689 329° Northwest 384 442 32,000  Level Chicago Center
Tue 06:42:36 PM 41.7697 -91.7433 328° Northwest 383 441 32,000  Level Chicago Center
Tue 06:43:38 PM 41.8783 -91.8336 328° Northwest 385 443 32,000  Level Chicago Center
Tue 06:44:40 PM 41.9697 -91.9081 329° Northwest 385 443 32,000  Level Chicago Center
Tue 06:45:42 PM 42.0589 -91.9808 329° Northwest 379 436 32,000  Level Chicago Center
Tue 06:46:44 PM 42.1436 -92.0517 328° Northwest 362 417 32,000  Level Chicago Center
Tue 06:47:46 PM 42.2244 -92.1192 328° Northwest 346 398 32,000  Level Chicago Center
Tue 06:48:48 PM 42.3219 -92.1994 329° Northwest 343 395 32,000  Level Chicago Center
Tue 06:49:50 PM 42.4053 -92.2697 328° Northwest 350 403 32,000  Level Chicago Center
Tue 06:50:52 PM 42.4878 -92.3403 328° Northwest 351 404 32,000  Level Chicago Center
Tue 06:51:55 PM 42.5708 -92.4106 328° Northwest 353 406 32,000  Level Chicago Center
Tue 06:52:57 PM 42.6508 -92.4833 326° Northwest 349 402 32,000  Level Chicago Center
Tue 06:53:59 PM 42.7325 -92.5589 326° Northwest 354 407 32,000  Level Chicago Center
Tue 06:55:01 PM 42.8261 -92.6447 326° Northwest 342 394 32,000  Level Chicago Center
Tue 06:56:03 PM 42.9006 -92.7131 326° Northwest 328 377 32,000  Level Chicago Center
Tue 06:57:05 PM 42.9706 -92.7783 326° Northwest 310 357 32,000 -387 Level Chicago Center
Tue 06:58:07 PM 43.0406 -92.8447 325° Northwest 308 354 31,200 -823 Descending Chicago Center
Tue 06:59:09 PM 43.1103 -92.9089 326° Northwest 306 352 30,300 -1,258 Descending Chicago Center
Tue 07:00:11 PM 43.1903 -92.9861 325° Northwest 297 342 28,600 -1,500 Descending Chicago Center
Tue 07:01:13 PM 43.2589 -93.0489 326° Northwest 298 343 27,200 -774 Descending Chicago Center
Tue 07:02:15 PM 43.3242 -93.1097 326° Northwest 290 334 27,000 -97 Descending Chicago Center
Tue 07:03:17 PM 43.3894 -93.1708 326° Northwest 287 330 27,000 -581 Level Chicago Center
Tue 07:04:19 PM 43.4542 -93.2336 325° Northwest 288 331 25,800 -1,403 Descending Chicago Center
Tue 07:05:21 PM 43.5358 -93.2928 332° Northwest 289 333 24,100 -871 Descending Chicago Center
Tue 07:06:23 PM 43.6097 -93.2847 North 297 342 24,000 -462 Descending Chicago Center
Tue 07:07:44 PM 43.7286 -93.2694 North 299 344 23,000 -1,049 Descending Minneapolis Center
Tue 07:08:46 PM 43.8086 -93.2622 North 293 337 21,500 -1,597 Descending Minneapolis Center
Tue 07:09:48 PM 43.9031 -93.2539 North 286 329 19,700 -1,839 Descending Minneapolis Center
Tue 07:10:50 PM 43.9794 -93.2458 North 279 321 17,700 -1,790 Descending Minneapolis Center
Tue 07:11:52 PM 44.0172 -93.1500 61° Northeast 324 373 16,000 -816 Descending Minneapolis Center
Tue 07:12:55 PM 43.9533 -93.0994 150° Southeast 282 325 16,000 -48 Level Minneapolis Center
Tue 07:13:57 PM 43.9447 -93.1825 262° West 265 305 15,900 -968 Descending Minneapolis Center
Tue 07:14:59 PM 44.0103 -93.2592 320° Northwest 295 339 14,000 -1,839 Descending Minneapolis Center
Tue 07:16:01 PM 44.0875 -93.3328 326° Northwest 298 343 12,100 -1,694 Descending Minneapolis Center
Tue 07:17:03 PM 44.1603 -93.2725 31° Northeast 307 353 10,500 -1,016 Descending Minneapolis Center
Tue 07:18:05 PM 44.2372 -93.2256 24° Northeast 303 349 10,000 -242 Descending Minneapolis Center
Tue 07:19:07 PM 44.3125 -93.2158 North 267 307 10,000  Level Minneapolis Center
Tue 07:20:09 PM 44.3825 -93.2067 North 256 295 10,000  Level Minneapolis Center
Tue 07:21:11 PM 44.4522 -93.1997 North 252 290 10,000  Level Minneapolis Center
Tue 07:22:13 PM 44.5339 -93.1917 North 247 284 10,000  Level Minneapolis Center
Tue 07:23:15 PM 44.6042 -93.1844 North 253 291 10,000  Level Minneapolis Center
Tue 07:24:17 PM 44.6719 -93.1808 North 247 284 10,000 -145 Level Minneapolis Center
Tue 07:25:19 PM 44.7383 -93.1744 North 246 283 9,700 -480 Descending Minneapolis Center
Tue 07:26:22 PM 44.7897 -93.2314 322° Northwest 232 267 9,000 -432 Descending Minneapolis Center
Tue 07:27:24 PM 44.8147 -93.3069 295° West 216 249 8,800 -484 Descending Minneapolis Center
Tue 07:28:26 PM 44.8378 -93.3764 295° West 199 229 8,000 -387 Descending Minneapolis Center
Tue 07:29:28 PM 44.8639 -93.4464 298° West 202 232 8,000  Level Minneapolis Center
Tue 07:30:30 PM 44.8958 -93.5311 298° West 204 235 8,000  Level Minneapolis Center
Tue 07:31:32 PM 44.9228 -93.6017 298° West 206 237 8,000 -145 Level Minneapolis Center
Tue 07:32:34 PM 44.9503 -93.6706 299° West 204 235 7,700 -726 Descending Minneapolis Center
Tue 07:33:36 PM 44.9931 -93.7022 332° Northwest 210 242 6,500 -1,065 Descending Minneapolis Center
Tue 07:34:38 PM 44.9944 -93.6328 88° East 195 224 5,500 -774 Descending Minneapolis Center
Tue 07:35:40 PM 44.9858 -93.5597 99° East 189 217 4,900 -581 Descending Minneapolis Center
Tue 07:36:42 PM 44.9692 -93.4778 106° East 181 208 4,300 -581 Descending Minneapolis Center
Tue 07:37:44 PM 44.9556 -93.4097 106° East 179 206 3,700 -677 Descending Minneapolis Center
Tue 07:38:46 PM 44.9381 -93.3506 113° Southeast 163 188 2,900 -823 Descending Minneapolis Center
Tue 07:39:48 PM 44.9164 -93.3014 122° Southeast 149 171 2,000 -720 Descending Minneapolis Center
Tue 07:40:51 PM 44.8994 -93.2603 120° Southeast 125 144 1,400 -571 Descending Minneapolis Center
Tue 07:42:00 PM 44.8820 -93.2218 42° Northeast  Level Estimated

Login

Don't have an account? Register now (free) for customized features, flight alerts, and more!